sensor_id;sensor_type;location;lat;lon;timestamp;temperature;humidity
12704;DHT22;6416;52.182;7.650;2024-01-15T00:00:41;5.90;93.80
12704;DHT22;6416;52.182;7.650;2024-01-15T00:03:06;5.90;93.80
12704;DHT22;6416;52.182;7.650;2024-01-15T00:05:32;5.90;93.70
12704;DHT22;6416;52.182;7.650;2024-01-15T00:07:57;5.90;93.70
12704;DHT22;6416;52.182;7.650;2024-01-15T00:10:23;5.90;93.80
12704;DHT22;6416;52.182;7.650;2024-01-15T00:12:49;5.90;93.70
12704;DHT22;6416;52.182;7.650;2024-01-15T00:15:14;5.90;93.40
12704;DHT22;6416;52.182;7.650;2024-01-15T00:17:40;5.90;93.00
12704;DHT22;6416;52.182;7.650;2024-01-15T00:20:06;5.80;92.70
12704;DHT22;6416;52.182;7.650;2024-01-15T00:22:32;5.80;92.50
12704;DHT22;6416;52.182;7.650;2024-01-15T00:24:58;5.70;92.40
12704;DHT22;6416;52.182;7.650;2024-01-15T00:27:23;5.70;92.50
12704;DHT22;6416;52.182;7.650;2024-01-15T00:29:49;5.60;92.50
12704;DHT22;6416;52.182;7.650;2024-01-15T00:32:15;5.50;92.40
12704;DHT22;6416;52.182;7.650;2024-01-15T00:34:40;5.50;92.40
12704;DHT22;6416;52.182;7.650;2024-01-15T00:37:06;5.40;92.20
12704;DHT22;6416;52.182;7.650;2024-01-15T00:39:31;5.40;92.20
12704;DHT22;6416;52.182;7.650;2024-01-15T00:41:56;5.30;92.10
12704;DHT22;6416;52.182;7.650;2024-01-15T00:44:22;5.30;92.10
12704;DHT22;6416;52.182;7.650;2024-01-15T00:46:47;5.20;92.10
12704;DHT22;6416;52.182;7.650;2024-01-15T00:49:13;5.20;92.10
12704;DHT22;6416;52.182;7.650;2024-01-15T00:51:39;5.10;92.30
12704;DHT22;6416;52.182;7.650;2024-01-15T00:54:05;5.10;92.30
12704;DHT22;6416;52.182;7.650;2024-01-15T00:56:30;5.10;92.40
12704;DHT22;6416;52.182;7.650;2024-01-15T00:58:55;5.00;92.60
12704;DHT22;6416;52.182;7.650;2024-01-15T01:01:21;5.00;92.80
12704;DHT22;6416;52.182;7.650;2024-01-15T01:03:46;5.00;92.80
12704;DHT22;6416;52.182;7.650;2024-01-15T01:06:12;5.00;92.70
12704;DHT22;6416;52.182;7.650;2024-01-15T01:08:38;5.00;92.70
12704;DHT22;6416;52.182;7.650;2024-01-15T01:11:04;4.90;92.70
12704;DHT22;6416;52.182;7.650;2024-01-15T01:13:29;4.90;92.70
12704;DHT22;6416;52.182;7.650;2024-01-15T01:15:55;4.90;92.70
12704;DHT22;6416;52.182;7.650;2024-01-15T01:18:20;4.90;92.70
12704;DHT22;6416;52.182;7.650;2024-01-15T01:20:46;4.90;92.60
12704;DHT22;6416;52.182;7.650;2024-01-15T01:23:12;4.90;92.60
12704;DHT22;6416;52.182;7.650;2024-01-15T01:25:37;4.80;92.60
12704;DHT22;6416;52.182;7.650;2024-01-15T01:28:03;4.80;92.50
12704;DHT22;6416;52.182;7.650;2024-01-15T01:30:28;4.80;92.50
12704;DHT22;6416;52.182;7.650;2024-01-15T01:32:54;4.80;92.50
12704;DHT22;6416;52.182;7.650;2024-01-15T01:35:22;4.70;92.50
12704;DHT22;6416;52.182;7.650;2024-01-15T01:37:48;4.80;92.60
12704;DHT22;6416;52.182;7.650;2024-01-15T01:40:13;4.70;92.60
12704;DHT22;6416;52.182;7.650;2024-01-15T01:42:39;4.70;92.70
12704;DHT22;6416;52.182;7.650;2024-01-15T01:45:04;4.70;92.90
12704;DHT22;6416;52.182;7.650;2024-01-15T01:47:30;4.70;93.00
12704;DHT22;6416;52.182;7.650;2024-01-15T01:49:56;4.70;92.90
12704;DHT22;6416;52.182;7.650;2024-01-15T01:52:22;4.70;92.70
12704;DHT22;6416;52.182;7.650;2024-01-15T01:54:47;4.70;92.60
12704;DHT22;6416;52.182;7.650;2024-01-15T01:57:14;4.70;92.40
12704;DHT22;6416;52.182;7.650;2024-01-15T01:59:40;4.70;92.40
12704;DHT22;6416;52.182;7.650;2024-01-15T02:02:06;4.60;92.40
12704;DHT22;6416;52.182;7.650;2024-01-15T02:04:32;4.60;92.30
12704;DHT22;6416;52.182;7.650;2024-01-15T02:06:59;4.60;92.40
12704;DHT22;6416;52.182;7.650;2024-01-15T02:09:25;4.50;92.30
12704;DHT22;6416;52.182;7.650;2024-01-15T02:11:50;4.50;92.30
12704;DHT22;6416;52.182;7.650;2024-01-15T02:14:16;4.50;92.30
12704;DHT22;6416;52.182;7.650;2024-01-15T02:16:41;4.50;92.30
12704;DHT22;6416;52.182;7.650;2024-01-15T02:19:07;4.50;92.40
12704;DHT22;6416;52.182;7.650;2024-01-15T02:21:39;4.40;92.40
12704;DHT22;6416;52.182;7.650;2024-01-15T02:24:05;4.40;92.40
12704;DHT22;6416;52.182;7.650;2024-01-15T02:26:30;4.40;92.40
12704;DHT22;6416;52.182;7.650;2024-01-15T02:28:56;4.40;92.60
12704;DHT22;6416;52.182;7.650;2024-01-15T02:31:22;4.40;93.00
12704;DHT22;6416;52.182;7.650;2024-01-15T02:33:47;4.40;93.20
12704;DHT22;6416;52.182;7.650;2024-01-15T02:36:12;4.40;93.40
12704;DHT22;6416;52.182;7.650;2024-01-15T02:38:38;4.50;93.50
12704;DHT22;6416;52.182;7.650;2024-01-15T02:41:04;4.50;93.60
12704;DHT22;6416;52.182;7.650;2024-01-15T02:43:29;4.50;93.60
12704;DHT22;6416;52.182;7.650;2024-01-15T02:45:55;4.60;93.70
12704;DHT22;6416;52.182;7.650;2024-01-15T02:48:20;4.60;93.60
12704;DHT22;6416;52.182;7.650;2024-01-15T02:50:46;4.60;93.70
12704;DHT22;6416;52.182;7.650;2024-01-15T02:53:11;4.70;93.80
12704;DHT22;6416;52.182;7.650;2024-01-15T02:55:37;4.70;94.20
12704;DHT22;6416;52.182;7.650;2024-01-15T02:58:03;4.70;93.90
12704;DHT22;6416;52.182;7.650;2024-01-15T03:00:29;4.80;93.90
12704;DHT22;6416;52.182;7.650;2024-01-15T03:02:54;4.80;93.90
12704;DHT22;6416;52.182;7.650;2024-01-15T03:05:20;4.80;94.00
12704;DHT22;6416;52.182;7.650;2024-01-15T03:07:45;4.90;94.00
12704;DHT22;6416;52.182;7.650;2024-01-15T03:10:11;4.90;94.10
12704;DHT22;6416;52.182;7.650;2024-01-15T03:12:36;5.00;94.20
12704;DHT22;6416;52.182;7.650;2024-01-15T03:15:02;5.00;94.20
12704;DHT22;6416;52.182;7.650;2024-01-15T03:17:27;5.00;94.20
12704;DHT22;6416;52.182;7.650;2024-01-15T03:19:53;5.10;94.30
12704;DHT22;6416;52.182;7.650;2024-01-15T03:22:18;5.10;94.20
12704;DHT22;6416;52.182;7.650;2024-01-15T03:24:44;5.10;94.20
12704;DHT22;6416;52.182;7.650;2024-01-15T03:27:10;5.20;94.20
12704;DHT22;6416;52.182;7.650;2024-01-15T03:29:35;5.20;94.30
12704;DHT22;6416;52.182;7.650;2024-01-15T03:32:01;5.20;94.20
12704;DHT22;6416;52.182;7.650;2024-01-15T03:34:26;5.30;94.10
12704;DHT22;6416;52.182;7.650;2024-01-15T03:36:52;5.30;94.00
12704;DHT22;6416;52.182;7.650;2024-01-15T03:39:17;5.30;93.80
12704;DHT22;6416;52.182;7.650;2024-01-15T03:41:43;5.30;93.80
12704;DHT22;6416;52.182;7.650;2024-01-15T03:44:08;5.30;93.60
12704;DHT22;6416;52.182;7.650;2024-01-15T03:46:34;5.30;93.40
12704;DHT22;6416;52.182;7.650;2024-01-15T03:48:59;5.30;93.30
12704;DHT22;6416;52.182;7.650;2024-01-15T03:51:25;5.20;93.40
12704;DHT22;6416;52.182;7.650;2024-01-15T03:53:50;5.20;93.50
12704;DHT22;6416;52.182;7.650;2024-01-15T03:56:16;5.20;93.70
12704;DHT22;6416;52.182;7.650;2024-01-15T03:58:41;5.20;93.80
12704;DHT22;6416;52.182;7.650;2024-01-15T04:01:10;5.20;93.80
12704;DHT22;6416;52.182;7.650;2024-01-15T04:03:36;5.30;93.80
12704;DHT22;6416;52.182;7.650;2024-01-15T04:06:02;5.30;93.80
12704;DHT22;6416;52.182;7.650;2024-01-15T04:08:27;5.30;94.10
12704;DHT22;6416;52.182;7.650;2024-01-15T04:10:53;5.30;93.70
12704;DHT22;6416;52.182;7.650;2024-01-15T04:13:18;5.30;93.60
12704;DHT22;6416;52.182;7.650;2024-01-15T04:15:44;5.30;93.60
12704;DHT22;6416;52.182;7.650;2024-01-15T04:18:09;5.30;93.50
12704;DHT22;6416;52.182;7.650;2024-01-15T04:20:35;5.30;93.40
12704;DHT22;6416;52.182;7.650;2024-01-15T04:23:00;5.30;93.30
12704;DHT22;6416;52.182;7.650;2024-01-15T04:25:26;5.20;93.30
12704;DHT22;6416;52.182;7.650;2024-01-15T04:27:51;5.20;93.40
12704;DHT22;6416;52.182;7.650;2024-01-15T04:30:17;5.20;93.40
12704;DHT22;6416;52.182;7.650;2024-01-15T04:32:42;5.20;93.50
12704;DHT22;6416;52.182;7.650;2024-01-15T04:35:08;5.20;93.60
12704;DHT22;6416;52.182;7.650;2024-01-15T04:37:33;5.20;93.60
12704;DHT22;6416;52.182;7.650;2024-01-15T04:39:58;5.20;93.60
12704;DHT22;6416;52.182;7.650;2024-01-15T04:42:24;5.20;93.60
12704;DHT22;6416;52.182;7.650;2024-01-15T04:44:49;5.20;93.70
12704;DHT22;6416;52.182;7.650;2024-01-15T04:47:15;5.20;93.60
12704;DHT22;6416;52.182;7.650;2024-01-15T04:49:41;5.20;93.60
12704;DHT22;6416;52.182;7.650;2024-01-15T04:52:06;5.20;93.50
12704;DHT22;6416;52.182;7.650;2024-01-15T04:54:32;5.20;93.50
12704;DHT22;6416;52.182;7.650;2024-01-15T04:56:57;5.20;93.50
12704;DHT22;6416;52.182;7.650;2024-01-15T04:59:22;5.20;93.50
12704;DHT22;6416;52.182;7.650;2024-01-15T05:01:48;5.20;93.50
12704;DHT22;6416;52.182;7.650;2024-01-15T05:04:14;5.20;93.50
12704;DHT22;6416;52.182;7.650;2024-01-15T05:06:39;5.10;93.50
12704;DHT22;6416;52.182;7.650;2024-01-15T05:09:05;5.10;93.40
12704;DHT22;6416;52.182;7.650;2024-01-15T05:11:30;5.10;93.30
12704;DHT22;6416;52.182;7.650;2024-01-15T05:13:56;5.10;93.20
12704;DHT22;6416;52.182;7.650;2024-01-15T05:16:21;5.10;93.30
12704;DHT22;6416;52.182;7.650;2024-01-15T05:18:47;5.10;93.30
12704;DHT22;6416;52.182;7.650;2024-01-15T05:21:12;5.00;93.30
12704;DHT22;6416;52.182;7.650;2024-01-15T05:23:38;5.00;93.40
12704;DHT22;6416;52.182;7.650;2024-01-15T05:26:03;5.00;93.50
12704;DHT22;6416;52.182;7.650;2024-01-15T05:28:29;5.00;93.30
12704;DHT22;6416;52.182;7.650;2024-01-15T05:30:55;5.00;93.20
12704;DHT22;6416;52.182;7.650;2024-01-15T05:33:21;4.90;93.10
12704;DHT22;6416;52.182;7.650;2024-01-15T05:35:46;4.90;93.10
12704;DHT22;6416;52.182;7.650;2024-01-15T05:38:12;4.90;93.10
12704;DHT22;6416;52.182;7.650;2024-01-15T05:40:37;4.90;93.20
12704;DHT22;6416;52.182;7.650;2024-01-15T05:43:03;4.80;93.30
12704;DHT22;6416;52.182;7.650;2024-01-15T05:45:30;4.80;93.50
12704;DHT22;6416;52.182;7.650;2024-01-15T05:47:56;4.80;93.60
12704;DHT22;6416;52.182;7.650;2024-01-15T05:50:22;4.80;93.70
12704;DHT22;6416;52.182;7.650;2024-01-15T05:52:47;4.90;93.80
12704;DHT22;6416;52.182;7.650;2024-01-15T05:55:13;4.90;93.90
12704;DHT22;6416;52.182;7.650;2024-01-15T05:57:38;4.90;93.90
12704;DHT22;6416;52.182;7.650;2024-01-15T06:00:05;4.90;93.90
12704;DHT22;6416;52.182;7.650;2024-01-15T06:02:30;4.90;93.90
12704;DHT22;6416;52.182;7.650;2024-01-15T06:04:56;4.90;93.90
12704;DHT22;6416;52.182;7.650;2024-01-15T06:07:22;4.90;94.00
12704;DHT22;6416;52.182;7.650;2024-01-15T06:09:48;4.90;93.90
12704;DHT22;6416;52.182;7.650;2024-01-15T06:12:13;5.00;94.00
12704;DHT22;6416;52.182;7.650;2024-01-15T06:14:39;5.00;93.90
12704;DHT22;6416;52.182;7.650;2024-01-15T06:17:04;5.00;93.90
12704;DHT22;6416;52.182;7.650;2024-01-15T06:19:29;5.00;93.80
12704;DHT22;6416;52.182;7.650;2024-01-15T06:21:55;5.00;93.80
12704;DHT22;6416;52.182;7.650;2024-01-15T06:24:20;5.00;93.80
12704;DHT22;6416;52.182;7.650;2024-01-15T06:26:47;5.00;93.90
12704;DHT22;6416;52.182;7.650;2024-01-15T06:29:12;5.00;93.90
12704;DHT22;6416;52.182;7.650;2024-01-15T06:31:38;5.00;93.90
12704;DHT22;6416;52.182;7.650;2024-01-15T06:34:03;5.00;93.90
12704;DHT22;6416;52.182;7.650;2024-01-15T06:36:28;5.00;94.00
12704;DHT22;6416;52.182;7.650;2024-01-15T06:38:54;5.00;94.00
12704;DHT22;6416;52.182;7.650;2024-01-15T06:41:19;5.00;94.00
12704;DHT22;6416;52.182;7.650;2024-01-15T06:43:45;5.10;93.90
12704;DHT22;6416;52.182;7.650;2024-01-15T06:46:10;5.10;93.90
12704;DHT22;6416;52.182;7.650;2024-01-15T06:48:36;5.10;93.90
12704;DHT22;6416;52.182;7.650;2024-01-15T06:51:01;5.10;93.80
12704;DHT22;6416;52.182;7.650;2024-01-15T06:53:27;5.10;93.80
12704;DHT22;6416;52.182;7.650;2024-01-15T06:55:52;5.10;93.80
12704;DHT22;6416;52.182;7.650;2024-01-15T06:58:18;5.10;93.70
12704;DHT22;6416;52.182;7.650;2024-01-15T07:00:43;5.10;93.70
12704;DHT22;6416;52.182;7.650;2024-01-15T07:03:09;5.10;93.60
12704;DHT22;6416;52.182;7.650;2024-01-15T07:05:34;5.00;93.80
12704;DHT22;6416;52.182;7.650;2024-01-15T07:07:59;5.00;93.50
12704;DHT22;6416;52.182;7.650;2024-01-15T07:10:25;5.00;93.50
12704;DHT22;6416;52.182;7.650;2024-01-15T07:12:50;5.00;93.60
12704;DHT22;6416;52.182;7.650;2024-01-15T07:15:16;5.00;93.60
12704;DHT22;6416;52.182;7.650;2024-01-15T07:17:41;5.00;93.70
12704;DHT22;6416;52.182;7.650;2024-01-15T07:20:07;5.00;93.80
12704;DHT22;6416;52.182;7.650;2024-01-15T07:22:35;5.00;93.80
12704;DHT22;6416;52.182;7.650;2024-01-15T07:25:00;5.00;93.90
12704;DHT22;6416;52.182;7.650;2024-01-15T07:27:26;5.00;93.90
12704;DHT22;6416;52.182;7.650;2024-01-15T07:29:51;5.00;93.90
12704;DHT22;6416;52.182;7.650;2024-01-15T07:32:17;5.00;93.90
12704;DHT22;6416;52.182;7.650;2024-01-15T07:34:42;5.00;93.90
12704;DHT22;6416;52.182;7.650;2024-01-15T07:37:08;5.00;93.90
12704;DHT22;6416;52.182;7.650;2024-01-15T07:39:33;5.00;93.90
12704;DHT22;6416;52.182;7.650;2024-01-15T07:41:59;5.10;94.00
12704;DHT22;6416;52.182;7.650;2024-01-15T07:44:24;5.10;94.00
12704;DHT22;6416;52.182;7.650;2024-01-15T07:46:49;5.10;94.00
12704;DHT22;6416;52.182;7.650;2024-01-15T07:49:15;5.10;93.80
12704;DHT22;6416;52.182;7.650;2024-01-15T07:51:40;5.10;93.80
12704;DHT22;6416;52.182;7.650;2024-01-15T07:54:06;5.10;93.70
12704;DHT22;6416;52.182;7.650;2024-01-15T07:56:32;5.10;93.80
12704;DHT22;6416;52.182;7.650;2024-01-15T07:58:58;5.10;93.70
12704;DHT22;6416;52.182;7.650;2024-01-15T08:01:24;5.10;93.70
12704;DHT22;6416;52.182;7.650;2024-01-15T08:03:49;5.00;93.70
12704;DHT22;6416;52.182;7.650;2024-01-15T08:06:15;5.00;93.70
12704;DHT22;6416;52.182;7.650;2024-01-15T08:08:40;5.00;93.80
12704;DHT22;6416;52.182;7.650;2024-01-15T08:11:06;5.00;93.80
12704;DHT22;6416;52.182;7.650;2024-01-15T08:13:31;5.10;93.90
12704;DHT22;6416;52.182;7.650;2024-01-15T08:15:57;5.10;94.00
12704;DHT22;6416;52.182;7.650;2024-01-15T08:18:22;5.10;94.00
12704;DHT22;6416;52.182;7.650;2024-01-15T08:20:48;5.10;94.00
12704;DHT22;6416;52.182;7.650;2024-01-15T08:23:13;5.10;94.00
12704;DHT22;6416;52.182;7.650;2024-01-15T08:25:39;5.10;94.00
12704;DHT22;6416;52.182;7.650;2024-01-15T08:28:05;5.10;94.00
12704;DHT22;6416;52.182;7.650;2024-01-15T08:30:30;5.10;94.10
12704;DHT22;6416;52.182;7.650;2024-01-15T08:32:56;5.20;94.20
12704;DHT22;6416;52.182;7.650;2024-01-15T08:35:22;5.20;94.20
12704;DHT22;6416;52.182;7.650;2024-01-15T08:37:51;5.20;94.20
12704;DHT22;6416;52.182;7.650;2024-01-15T08:40:17;5.20;94.10
12704;DHT22;6416;52.182;7.650;2024-01-15T08:42:43;5.20;94.00
12704;DHT22;6416;52.182;7.650;2024-01-15T08:45:09;5.20;94.00
12704;DHT22;6416;52.182;7.650;2024-01-15T08:47:35;5.20;93.90
12704;DHT22;6416;52.182;7.650;2024-01-15T08:50:01;5.20;93.90
12704;DHT22;6416;52.182;7.650;2024-01-15T08:52:26;5.20;93.80
12704;DHT22;6416;52.182;7.650;2024-01-15T08:54:52;5.20;93.50
12704;DHT22;6416;52.182;7.650;2024-01-15T08:57:17;5.20;93.60
12704;DHT22;6416;52.182;7.650;2024-01-15T08:59:43;5.20;93.60
12704;DHT22;6416;52.182;7.650;2024-01-15T09:02:08;5.20;93.60
12704;DHT22;6416;52.182;7.650;2024-01-15T09:04:34;5.20;93.70
12704;DHT22;6416;52.182;7.650;2024-01-15T09:07:00;5.20;93.90
12704;DHT22;6416;52.182;7.650;2024-01-15T09:09:25;5.20;94.10
12704;DHT22;6416;52.182;7.650;2024-01-15T09:11:51;5.20;94.20
12704;DHT22;6416;52.182;7.650;2024-01-15T09:14:17;5.30;94.30
12704;DHT22;6416;52.182;7.650;2024-01-15T09:16:42;5.30;94.20
12704;DHT22;6416;52.182;7.650;2024-01-15T09:19:08;5.30;94.10
12704;DHT22;6416;52.182;7.650;2024-01-15T09:21:33;5.30;94.10
12704;DHT22;6416;52.182;7.650;2024-01-15T09:23:59;5.40;94.10
12704;DHT22;6416;52.182;7.650;2024-01-15T09:26:24;5.40;94.10
12704;DHT22;6416;52.182;7.650;2024-01-15T09:28:50;5.40;94.10
12704;DHT22;6416;52.182;7.650;2024-01-15T09:31:15;5.40;94.20
12704;DHT22;6416;52.182;7.650;2024-01-15T09:33:41;5.50;94.20
12704;DHT22;6416;52.182;7.650;2024-01-15T09:36:06;5.50;94.10
12704;DHT22;6416;52.182;7.650;2024-01-15T09:38:32;5.50;94.40
12704;DHT22;6416;52.182;7.650;2024-01-15T09:40:57;5.60;94.70
12704;DHT22;6416;52.182;7.650;2024-01-15T09:43:23;5.60;94.70
12704;DHT22;6416;52.182;7.650;2024-01-15T09:45:49;5.70;94.50
12704;DHT22;6416;52.182;7.650;2024-01-15T09:48:15;5.70;94.40
12704;DHT22;6416;52.182;7.650;2024-01-15T09:50:41;5.80;94.60
12704;DHT22;6416;52.182;7.650;2024-01-15T09:53:06;5.90;94.80
12704;DHT22;6416;52.182;7.650;2024-01-15T09:55:32;5.90;95.10
12704;DHT22;6416;52.182;7.650;2024-01-15T09:57:58;6.00;95.20
12704;DHT22;6416;52.182;7.650;2024-01-15T10:00:26;6.10;95.00
12704;DHT22;6416;52.182;7.650;2024-01-15T10:02:52;6.20;94.80
12704;DHT22;6416;52.182;7.650;2024-01-15T10:05:17;6.20;94.80
12704;DHT22;6416;52.182;7.650;2024-01-15T10:07:43;6.30;95.10
12704;DHT22;6416;52.182;7.650;2024-01-15T10:10:11;6.40;94.80
12704;DHT22;6416;52.182;7.650;2024-01-15T10:12:37;6.40;94.40
12704;DHT22;6416;52.182;7.650;2024-01-15T10:15:03;6.50;94.40
12704;DHT22;6416;52.182;7.650;2024-01-15T10:17:28;6.50;94.60
12704;DHT22;6416;52.182;7.650;2024-01-15T10:19:54;6.60;94.70
12704;DHT22;6416;52.182;7.650;2024-01-15T10:22:19;6.70;95.10
12704;DHT22;6416;52.182;7.650;2024-01-15T10:24:45;6.80;95.10
12704;DHT22;6416;52.182;7.650;2024-01-15T10:27:13;6.90;94.80
12704;DHT22;6416;52.182;7.650;2024-01-15T10:29:39;6.90;94.30
12704;DHT22;6416;52.182;7.650;2024-01-15T10:32:07;7.00;95.00
12704;DHT22;6416;52.182;7.650;2024-01-15T10:34:33;7.20;96.30
12704;DHT22;6416;52.182;7.650;2024-01-15T10:36:58;7.40;97.60
12704;DHT22;6416;52.182;7.650;2024-01-15T10:39:26;7.70;97.60
12704;DHT22;6416;52.182;7.650;2024-01-15T10:41:51;8.10;98.10
12704;DHT22;6416;52.182;7.650;2024-01-15T10:44:17;8.40;97.90
12704;DHT22;6416;52.182;7.650;2024-01-15T10:46:43;8.70;96.70
12704;DHT22;6416;52.182;7.650;2024-01-15T10:49:11;8.80;95.60
12704;DHT22;6416;52.182;7.650;2024-01-15T10:51:37;8.90;94.30
12704;DHT22;6416;52.182;7.650;2024-01-15T10:54:03;8.90;93.40
12704;DHT22;6416;52.182;7.650;2024-01-15T10:56:31;8.90;93.00
12704;DHT22;6416;52.182;7.650;2024-01-15T10:58:57;8.90;92.70
12704;DHT22;6416;52.182;7.650;2024-01-15T11:01:24;9.00;93.70
12704;DHT22;6416;52.182;7.650;2024-01-15T11:03:49;9.00;93.50
12704;DHT22;6416;52.182;7.650;2024-01-15T11:06:19;9.00;93.00
12704;DHT22;6416;52.182;7.650;2024-01-15T11:08:45;9.00;92.30
12704;DHT22;6416;52.182;7.650;2024-01-15T11:11:10;9.00;93.00
12704;DHT22;6416;52.182;7.650;2024-01-15T11:18:34;9.30;92.90
12704;DHT22;6416;52.182;7.650;2024-01-15T11:26:34;9.30;91.50
12704;DHT22;6416;52.182;7.650;2024-01-15T11:29:05;9.20;91.00
12704;DHT22;6416;52.182;7.650;2024-01-15T11:34:06;9.10;90.90
12704;DHT22;6416;52.182;7.650;2024-01-15T11:42:00;9.50;91.90
12704;DHT22;6416;52.182;7.650;2024-01-15T11:44:26;9.50;92.10
12704;DHT22;6416;52.182;7.650;2024-01-15T11:47:04;9.60;92.20
12704;DHT22;6416;52.182;7.650;2024-01-15T11:52:21;9.60;90.70
12704;DHT22;6416;52.182;7.650;2024-01-15T11:54:58;9.50;90.90
12704;DHT22;6416;52.182;7.650;2024-01-15T11:57:41;9.40;89.40
12704;DHT22;6416;52.182;7.650;2024-01-15T12:00:09;9.30;88.50
12704;DHT22;6416;52.182;7.650;2024-01-15T12:02:34;9.20;89.80
12704;DHT22;6416;52.182;7.650;2024-01-15T12:05:00;9.10;90.00
12704;DHT22;6416;52.182;7.650;2024-01-15T12:07:26;9.00;90.10
12704;DHT22;6416;52.182;7.650;2024-01-15T12:09:51;8.90;90.40
12704;DHT22;6416;52.182;7.650;2024-01-15T12:12:27;8.90;90.70
12704;DHT22;6416;52.182;7.650;2024-01-15T12:14:54;8.90;90.20
12704;DHT22;6416;52.182;7.650;2024-01-15T12:17:20;8.90;90.50
12704;DHT22;6416;52.182;7.650;2024-01-15T12:19:45;8.80;90.10
12704;DHT22;6416;52.182;7.650;2024-01-15T12:22:11;8.70;88.80
12704;DHT22;6416;52.182;7.650;2024-01-15T12:24:36;8.70;88.40
12704;DHT22;6416;52.182;7.650;2024-01-15T12:27:02;8.50;88.10
12704;DHT22;6416;52.182;7.650;2024-01-15T12:29:28;8.40;88.20
12704;DHT22;6416;52.182;7.650;2024-01-15T12:31:53;8.30;88.40
12704;DHT22;6416;52.182;7.650;2024-01-15T12:34:19;8.20;88.50
12704;DHT22;6416;52.182;7.650;2024-01-15T12:36:46;8.10;88.90
12704;DHT22;6416;52.182;7.650;2024-01-15T12:39:12;8.00;89.00
12704;DHT22;6416;52.182;7.650;2024-01-15T12:41:38;8.00;89.90
12704;DHT22;6416;52.182;7.650;2024-01-15T12:44:04;7.90;90.00
12704;DHT22;6416;52.182;7.650;2024-01-15T12:46:30;7.90;90.00
12704;DHT22;6416;52.182;7.650;2024-01-15T12:48:56;7.90;90.00
12704;DHT22;6416;52.182;7.650;2024-01-15T12:51:25;7.80;89.90
12704;DHT22;6416;52.182;7.650;2024-01-15T12:53:51;7.80;89.50
12704;DHT22;6416;52.182;7.650;2024-01-15T12:56:16;7.70;89.70
12704;DHT22;6416;52.182;7.650;2024-01-15T12:58:42;7.70;89.80
12704;DHT22;6416;52.182;7.650;2024-01-15T13:01:07;7.60;90.00
12704;DHT22;6416;52.182;7.650;2024-01-15T13:03:33;7.60;89.70
12704;DHT22;6416;52.182;7.650;2024-01-15T13:05:58;7.50;89.70
12704;DHT22;6416;52.182;7.650;2024-01-15T13:08:24;7.50;90.00
12704;DHT22;6416;52.182;7.650;2024-01-15T13:10:49;7.40;90.00
12704;DHT22;6416;52.182;7.650;2024-01-15T13:13:15;7.40;90.10
12704;DHT22;6416;52.182;7.650;2024-01-15T13:15:40;7.40;90.30
12704;DHT22;6416;52.182;7.650;2024-01-15T13:18:06;7.40;90.30
12704;DHT22;6416;52.182;7.650;2024-01-15T13:20:31;7.30;90.30
12704;DHT22;6416;52.182;7.650;2024-01-15T13:22:57;7.30;90.40
12704;DHT22;6416;52.182;7.650;2024-01-15T13:25:23;7.30;90.50
12704;DHT22;6416;52.182;7.650;2024-01-15T13:27:48;7.30;90.50
12704;DHT22;6416;52.182;7.650;2024-01-15T13:30:13;7.30;90.60
12704;DHT22;6416;52.182;7.650;2024-01-15T13:32:39;7.30;90.50
12704;DHT22;6416;52.182;7.650;2024-01-15T13:35:05;7.00;91.00
12704;DHT22;6416;52.182;7.650;2024-01-15T13:37:30;7.00;91.00
12704;DHT22;6416;52.182;7.650;2024-01-15T13:39:56;7.10;91.00
12704;DHT22;6416;52.182;7.650;2024-01-15T13:42:21;7.20;91.00
12704;DHT22;6416;52.182;7.650;2024-01-15T13:44:47;7.20;91.00
12704;DHT22;6416;52.182;7.650;2024-01-15T13:47:12;7.30;90.90
12704;DHT22;6416;52.182;7.650;2024-01-15T13:49:38;7.30;90.90
12704;DHT22;6416;52.182;7.650;2024-01-15T13:52:04;7.30;90.80
12704;DHT22;6416;52.182;7.650;2024-01-15T13:54:29;7.30;90.70
12704;DHT22;6416;52.182;7.650;2024-01-15T13:56:55;7.30;90.70
12704;DHT22;6416;52.182;7.650;2024-01-15T13:59:21;7.30;90.60
12704;DHT22;6416;52.182;7.650;2024-01-15T14:01:46;7.30;90.60
12704;DHT22;6416;52.182;7.650;2024-01-15T14:04:12;7.30;90.50
12704;DHT22;6416;52.182;7.650;2024-01-15T14:06:37;7.30;90.50
12704;DHT22;6416;52.182;7.650;2024-01-15T14:09:03;7.20;90.50
12704;DHT22;6416;52.182;7.650;2024-01-15T14:11:28;7.20;90.50
12704;DHT22;6416;52.182;7.650;2024-01-15T14:13:53;7.20;90.40
12704;DHT22;6416;52.182;7.650;2024-01-15T14:16:19;7.20;90.40
12704;DHT22;6416;52.182;7.650;2024-01-15T14:18:44;7.20;90.30
12704;DHT22;6416;52.182;7.650;2024-01-15T14:21:10;7.20;90.40
12704;DHT22;6416;52.182;7.650;2024-01-15T14:23:35;7.10;90.30
12704;DHT22;6416;52.182;7.650;2024-01-15T14:26:01;7.10;90.30
12704;DHT22;6416;52.182;7.650;2024-01-15T14:28:26;7.10;90.30
12704;DHT22;6416;52.182;7.650;2024-01-15T14:30:52;7.10;90.20
12704;DHT22;6416;52.182;7.650;2024-01-15T14:33:17;7.10;90.20
12704;DHT22;6416;52.182;7.650;2024-01-15T14:35:43;7.00;90.20
12704;DHT22;6416;52.182;7.650;2024-01-15T14:38:08;7.00;90.00
12704;DHT22;6416;52.182;7.650;2024-01-15T14:40:34;6.90;89.80
12704;DHT22;6416;52.182;7.650;2024-01-15T14:43:00;6.90;89.70
12704;DHT22;6416;52.182;7.650;2024-01-15T14:45:25;6.80;89.90
12704;DHT22;6416;52.182;7.650;2024-01-15T14:47:51;6.80;90.00
12704;DHT22;6416;52.182;7.650;2024-01-15T14:50:16;6.70;90.00
12704;DHT22;6416;52.182;7.650;2024-01-15T14:52:41;6.70;90.30
12704;DHT22;6416;52.182;7.650;2024-01-15T14:55:07;6.70;90.00
12704;DHT22;6416;52.182;7.650;2024-01-15T14:57:33;6.70;90.00
12704;DHT22;6416;52.182;7.650;2024-01-15T14:59:58;6.60;90.00
12704;DHT22;6416;52.182;7.650;2024-01-15T15:02:24;6.60;90.00
12704;DHT22;6416;52.182;7.650;2024-01-15T15:04:49;6.60;90.00
12704;DHT22;6416;52.182;7.650;2024-01-15T15:07:15;6.50;90.00
12704;DHT22;6416;52.182;7.650;2024-01-15T15:09:40;6.50;90.00
12704;DHT22;6416;52.182;7.650;2024-01-15T15:12:06;6.50;90.00
12704;DHT22;6416;52.182;7.650;2024-01-15T15:14:35;6.50;90.00
12704;DHT22;6416;52.182;7.650;2024-01-15T15:17:00;6.50;89.70
12704;DHT22;6416;52.182;7.650;2024-01-15T15:19:26;6.50;89.80
12704;DHT22;6416;52.182;7.650;2024-01-15T15:21:51;6.40;89.80
12704;DHT22;6416;52.182;7.650;2024-01-15T15:24:17;6.40;90.00
12704;DHT22;6416;52.182;7.650;2024-01-15T15:26:42;6.30;90.00
12704;DHT22;6416;52.182;7.650;2024-01-15T15:29:07;6.30;90.00
12704;DHT22;6416;52.182;7.650;2024-01-15T15:31:33;6.30;89.80
12704;DHT22;6416;52.182;7.650;2024-01-15T15:33:58;6.20;89.60
12704;DHT22;6416;52.182;7.650;2024-01-15T15:36:24;6.20;89.70
12704;DHT22;6416;52.182;7.650;2024-01-15T15:38:49;6.10;89.70
12704;DHT22;6416;52.182;7.650;2024-01-15T15:41:15;6.10;89.90
12704;DHT22;6416;52.182;7.650;2024-01-15T15:43:40;6.10;89.90
12704;DHT22;6416;52.182;7.650;2024-01-15T15:46:06;6.00;89.80
12704;DHT22;6416;52.182;7.650;2024-01-15T15:48:31;6.00;89.50
12704;DHT22;6416;52.182;7.650;2024-01-15T15:50:57;6.00;89.40
12704;DHT22;6416;52.182;7.650;2024-01-15T15:53:22;5.80;88.90
12704;DHT22;6416;52.182;7.650;2024-01-15T15:55:48;5.90;88.80
12704;DHT22;6416;52.182;7.650;2024-01-15T15:58:13;5.80;88.50
12704;DHT22;6416;52.182;7.650;2024-01-15T16:00:39;5.70;88.20
12704;DHT22;6416;52.182;7.650;2024-01-15T16:03:04;5.70;88.10
12704;DHT22;6416;52.182;7.650;2024-01-15T16:05:30;5.60;88.10
12704;DHT22;6416;52.182;7.650;2024-01-15T16:07:55;5.60;88.00
12704;DHT22;6416;52.182;7.650;2024-01-15T16:10:20;5.50;87.90
12704;DHT22;6416;52.182;7.650;2024-01-15T16:12:46;5.40;87.90